Van Kinsbergen — PAKB — position and weather

sailwx.info

Track history (hours):
 
Tides and Currents Weather Stations Pressure Air Temp Water Temp Dewpoint Dewpoint Depression Visibility Wind Speed Wind Dir Waves Ship Positions

Van Kinsbergen

Last reported at 2015-Apr-27 16:26 UTC. Time now 2015-Apr-27 17:09 UTC.
Position N 52°58' E 004°47'.

Length 40 m; draft 3.1 m.

MMSI: 244736000.

Date/timePositionNaut miles runAvg speedWind from/ knotsBaromVisibWave heightAir tempDewpointWater temp
2015-Apr-27 16:26N 52°58' E 004°47'0 0.0
2015-Apr-27 15:26N 52°58' E 004°47'0 0.0
2015-Apr-27 13:11N 52°58' E 004°47'0 0.0
2015-Apr-27 12:26N 52°58' E 004°47'0 0.0
2015-Apr-27 11:26N 52°58' E 004°47'0 0.0
2015-Apr-27 10:32N 52°58' E 004°47'0 0.0
2015-Apr-27 09:14N 52°58' E 004°47'0 0.0
2015-Apr-27 08:26N 52°58' E 004°47'0 0.0
2015-Apr-27 07:32N 52°58' E 004°47'0 0.0
2015-Apr-27 06:20N 52°58' E 004°47'0 0.0
2015-Apr-27 05:32N 52°58' E 004°47'0 0.0
2015-Apr-27 04:08N 52°58' E 004°47'0 0.0
2015-Apr-27 03:08N 52°58' E 004°47'0 0.0
2015-Apr-27 02:26N 52°58' E 004°47'0 0.0
2015-Apr-27 01:32N 52°58' E 004°47'0 0.0
2015-Apr-27 00:32N 52°58' E 004°47'0 0.0
2015-Apr-26 23:26N 52°58' E 004°47'0 0.0
2015-Apr-26 22:20N 52°58' E 004°47'0 0.0
2015-Apr-26 21:32N 52°58' E 004°47'0 0.0
2015-Apr-26 20:17N 52°58' E 004°47'0 0.0
2015-Apr-26 19:32N 52°58' E 004°47'0 0.0
2015-Apr-26 18:20N 52°58' E 004°47'0 0.0
2015-Apr-26 16:26N 52°58' E 004°47'0 0.0
2015-Apr-26 15:26N 52°58' E 004°47'0 0.0
2015-Apr-26 14:20N 52°58' E 004°47'0 0.0
2015-Apr-26 13:32N 52°58' E 004°47'0 0.0
2015-Apr-26 12:26N 52°58' E 004°47'0 0.0
2015-Apr-26 11:14N 52°58' E 004°47'0 0.0
2015-Apr-26 10:32N 52°58' E 004°47'0 0.0
2015-Apr-26 09:32N 52°58' E 004°47'0 0.0
2015-Apr-26 08:23N 52°58' E 004°47'0 0.0
2015-Apr-26 07:32N 52°58' E 004°47'0 0.0
2015-Apr-26 06:32N 52°58' E 004°47'0 0.0
2015-Apr-26 05:29N 52°58' E 004°47'0 0.0
2015-Apr-26 02:29N 52°58' E 004°47'0 0.0
2015-Apr-26 01:26N 52°58' E 004°47'0 0.0
2015-Apr-26 00:32N 52°58' E 004°47'0 0.0
2015-Apr-25 23:08N 52°58' E 004°47'0 0.0
2015-Apr-25 22:29N 52°58' E 004°47'0 0.0
2015-Apr-25 21:14N 52°58' E 004°47'0 0.0
2015-Apr-25 20:29N 52°58' E 004°47'0 0.0
2015-Apr-25 19:32N 52°58' E 004°47'0 0.0
2015-Apr-25 18:17N 52°58' E 004°47'0 0.0
2015-Apr-25 17:32N 52°58' E 004°47'0 0.0
2015-Apr-25 16:32N 52°58' E 004°47'0 0.0
2015-Apr-25 15:32N 52°58' E 004°47'0 0.0
2015-Apr-25 14:29N 52°58' E 004°47'0 0.0
2015-Apr-25 13:32N 52°58' E 004°47'0 0.0
2015-Apr-25 12:23N 52°58' E 004°47'0 0.0
2015-Apr-25 11:14N 52°58' E 004°47'0 0.0
2015-Apr-25 10:17N 52°58' E 004°47'0 0.0
2015-Apr-25 09:14N 52°58' E 004°47'0 0.0
2015-Apr-25 08:08N 52°58' E 004°47'0 0.0
2015-Apr-25 07:08N 52°58' E 004°47'0 0.0
2015-Apr-25 06:17N 52°58' E 004°47'0 0.0
2015-Apr-25 05:20N 52°58' E 004°47'0 0.0
2015-Apr-25 04:11N 52°58' E 004°47'0 0.0
2015-Apr-25 03:26N 52°58' E 004°47'0 0.0
2015-Apr-25 02:32N 52°58' E 004°47'0 0.0
2015-Apr-24 23:32N 52°58' E 004°47'0 0.0
2015-Apr-24 21:17N 52°58' E 004°47'0 0.0
2015-Apr-24 19:26N 52°58' E 004°47'0 0.0
2015-Apr-24 17:05N 52°58' E 004°47'1 1.4
2015-Apr-24 16:33N 52°58' E 004°47'8 8.5
2015-Apr-24 15:33N 52°54' E 004°34'1612.0
2015-Apr-24 14:14N 53°09' E 004°42'1012.5
2015-Apr-24 13:27N 53°17' E 004°53'1011.2
2015-Apr-24 12:34N 53°19' E 005°09'3 3.3
2015-Apr-24 11:34N 53°21' E 005°13'4 3.7
2015-Apr-24 10:34N 53°18' E 005°13'9 9.5
2015-Apr-24 09:34N 53°21' E 004°57'10 9.9
2015-Apr-24 08:30N 53°31' E 004°59'9 9.1
2015-Apr-24 07:33N 53°36' E 005°11'1111.3
2015-Apr-24 06:33N 53°41' E 005°28'1312.2
2015-Apr-24 05:30N 53°45' E 005°49'6511.0
2015-Apr-23 23:33N 54°01' E 007°36'10 9.9
2015-Apr-23 22:33N 54°02' E 007°53'1712.0
2015-Apr-23 21:06N 53°60' E 008°22'813.7
2015-Apr-23 20:33N 53°58' E 008°35'1413.7
2015-Apr-23 19:34N 53°51' E 008°55'9 8.8
2015-Apr-23 18:33N 53°54' E 009°09'7 6.9
2015-Apr-23 17:33N 53°59' E 009°17'19 7.9
2015-Apr-23 15:06N 54°14' E 009°37'5 7.6
2015-Apr-23 14:24N 54°18' E 009°43'6 7.6
2015-Apr-23 13:33N 54°22' E 009°52'8 7.6
2015-Apr-23 12:34N 54°22' E 010°05'2 2.0
2015-Apr-23 11:34N 54°22' E 010°08'1 1.4
2015-Apr-23 10:34N 54°23' E 010°10'9 8.6
2015-Apr-23 09:30N 54°31' E 010°15'  
2015-Apr-20 10:09N 54°37' E 010°15'6 9.9
2015-Apr-20 09:34N 54°32' E 010°18'9 8.8
2015-Apr-20 08:33N 54°24' E 010°12'3 2.8
2015-Apr-20 07:31N 54°22' E 010°09'0 0.0
2015-Apr-20 06:31N 54°22' E 010°09'0 0.0
2015-Apr-20 05:31N 54°22' E 010°09'0 0.0
2015-Apr-20 04:31N 54°22' E 010°09'0 0.0
2015-Apr-20 03:31N 54°22' E 010°09'0 0.0
2015-Apr-20 02:31N 54°22' E 010°09'0 0.0
2015-Apr-20 01:28N 54°22' E 010°09'0 0.0
2015-Apr-20 00:28N 54°22' E 010°09'0 0.0
2015-Apr-19 23:25N 54°22' E 010°09'0 0.0
2015-Apr-19 22:22N 54°22' E 010°09'0 0.0
2015-Apr-19 21:22N 54°22' E 010°09'0 0.0
2015-Apr-19 20:28N 54°22' E 010°09'0 0.0
2015-Apr-19 19:28N 54°22' E 010°09'0 0.0
2015-Apr-19 18:28N 54°22' E 010°09'0 0.0
2015-Apr-19 17:31N 54°22' E 010°09'0 0.0
2015-Apr-19 16:31N 54°22' E 010°09'0 0.0
2015-Apr-19 15:28N 54°22' E 010°09'0 0.0
2015-Apr-19 14:28N 54°22' E 010°09'0 0.0
2015-Apr-19 13:31N 54°22' E 010°09'0 0.0
2015-Apr-19 12:31N 54°22' E 010°09'0 0.0
2015-Apr-19 11:31N 54°22' E 010°09'0 0.0
2015-Apr-19 10:31N 54°22' E 010°09'0 0.0
2015-Apr-19 09:31N 54°22' E 010°09'0 0.0
2015-Apr-19 08:31N 54°22' E 010°09'0 0.0
2015-Apr-19 07:31N 54°22' E 010°09'0 0.0
2015-Apr-19 06:31N 54°22' E 010°09'0 0.0
2015-Apr-19 05:31N 54°22' E 010°09'0 0.0
2015-Apr-19 04:31N 54°22' E 010°09'0 0.0
2015-Apr-19 03:31N 54°22' E 010°09'0 0.0
2015-Apr-19 02:31N 54°22' E 010°09'0 0.0
2015-Apr-19 01:25N 54°22' E 010°09'0 0.0
2015-Apr-19 00:25N 54°22' E 010°09'0 0.0
2015-Apr-18 23:31N 54°22' E 010°09'0 0.0
2015-Apr-18 22:31N 54°22' E 010°09'0 0.0
2015-Apr-18 21:31N 54°22' E 010°09'0 0.0
2015-Apr-18 20:31N 54°22' E 010°09'0 0.0
2015-Apr-18 19:31N 54°22' E 010°09'0 0.0
2015-Apr-18 18:31N 54°22' E 010°09'0 0.0
2015-Apr-18 17:31N 54°22' E 010°09'0 0.0
2015-Apr-18 16:31N 54°22' E 010°09'0 0.0
2015-Apr-18 15:31N 54°22' E 010°09'0 0.0
2015-Apr-18 14:31N 54°22' E 010°09'0 0.0
2015-Apr-18 13:31N 54°22' E 010°09'0 0.0
2015-Apr-18 12:19N 54°22' E 010°09'0 0.0
2015-Apr-18 11:31N 54°22' E 010°09'0 0.0
2015-Apr-18 10:31N 54°22' E 010°09'0 0.0
2015-Apr-18 09:31N 54°22' E 010°09'0 0.0
2015-Apr-18 08:31N 54°22' E 010°09'6 6.6
2015-Apr-18 07:33N 54°27' E 010°14'10 9.5
2015-Apr-18 06:33N 54°37' E 010°12'1211.8
2015-Apr-18 05:33N 54°47' E 010°01'5 0.4
2015-Apr-17 19:11N 54°50' E 009°55'  
Track history (hours):
 
Tides and Currents Weather Stations Pressure Air Temp Water Temp Dewpoint Dewpoint Depression Visibility Wind Speed Wind Dir Waves Ship Positions

Van Kinsbergen

Last reported at 2015-Apr-27 16:26 UTC. Time now 2015-Apr-27 17:09 UTC.
Position N 52°58' E 004°47'.

Length 40 m; draft 3.1 m.

MMSI: 244736000.

Date/timePositionNaut miles runAvg speedWind from/ knotsBaromVisibWave heightAir tempDewpointWater temp
2015-Apr-27 16:26N 52°58' E 004°47'0 0.0
2015-Apr-27 15:26N 52°58' E 004°47'0 0.0
2015-Apr-27 13:11N 52°58' E 004°47'0 0.0
2015-Apr-27 12:26N 52°58' E 004°47'0 0.0
2015-Apr-27 11:26N 52°58' E 004°47'0 0.0
2015-Apr-27 10:32N 52°58' E 004°47'0 0.0
2015-Apr-27 09:14N 52°58' E 004°47'0 0.0
2015-Apr-27 08:26N 52°58' E 004°47'0 0.0
2015-Apr-27 07:32N 52°58' E 004°47'0 0.0
2015-Apr-27 06:20N 52°58' E 004°47'0 0.0
2015-Apr-27 05:32N 52°58' E 004°47'0 0.0
2015-Apr-27 04:08N 52°58' E 004°47'0 0.0
2015-Apr-27 03:08N 52°58' E 004°47'0 0.0
2015-Apr-27 02:26N 52°58' E 004°47'0 0.0
2015-Apr-27 01:32N 52°58' E 004°47'0 0.0
2015-Apr-27 00:32N 52°58' E 004°47'0 0.0
2015-Apr-26 23:26N 52°58' E 004°47'0 0.0
2015-Apr-26 22:20N 52°58' E 004°47'0 0.0
2015-Apr-26 21:32N 52°58' E 004°47'0 0.0
2015-Apr-26 20:17N 52°58' E 004°47'0 0.0
2015-Apr-26 19:32N 52°58' E 004°47'0 0.0
2015-Apr-26 18:20N 52°58' E 004°47'0 0.0
2015-Apr-26 16:26N 52°58' E 004°47'0 0.0
2015-Apr-26 15:26N 52°58' E 004°47'0 0.0
2015-Apr-26 14:20N 52°58' E 004°47'0 0.0
2015-Apr-26 13:32N 52°58' E 004°47'0 0.0
2015-Apr-26 12:26N 52°58' E 004°47'0 0.0
2015-Apr-26 11:14N 52°58' E 004°47'0 0.0
2015-Apr-26 10:32N 52°58' E 004°47'0 0.0
2015-Apr-26 09:32N 52°58' E 004°47'0 0.0
2015-Apr-26 08:23N 52°58' E 004°47'0 0.0
2015-Apr-26 07:32N 52°58' E 004°47'0 0.0
2015-Apr-26 06:32N 52°58' E 004°47'0 0.0
2015-Apr-26 05:29N 52°58' E 004°47'0 0.0
2015-Apr-26 02:29N 52°58' E 004°47'0 0.0
2015-Apr-26 01:26N 52°58' E 004°47'0 0.0
2015-Apr-26 00:32N 52°58' E 004°47'0 0.0
2015-Apr-25 23:08N 52°58' E 004°47'0 0.0
2015-Apr-25 22:29N 52°58' E 004°47'0 0.0
2015-Apr-25 21:14N 52°58' E 004°47'0 0.0
2015-Apr-25 20:29N 52°58' E 004°47'0 0.0
2015-Apr-25 19:32N 52°58' E 004°47'0 0.0
2015-Apr-25 18:17N 52°58' E 004°47'0 0.0
2015-Apr-25 17:32N 52°58' E 004°47'0 0.0
2015-Apr-25 16:32N 52°58' E 004°47'0 0.0
2015-Apr-25 15:32N 52°58' E 004°47'0 0.0
2015-Apr-25 14:29N 52°58' E 004°47'0 0.0
2015-Apr-25 13:32N 52°58' E 004°47'0 0.0
2015-Apr-25 12:23N 52°58' E 004°47'0 0.0
2015-Apr-25 11:14N 52°58' E 004°47'0 0.0
2015-Apr-25 10:17N 52°58' E 004°47'0 0.0
2015-Apr-25 09:14N 52°58' E 004°47'0 0.0
2015-Apr-25 08:08N 52°58' E 004°47'0 0.0
2015-Apr-25 07:08N 52°58' E 004°47'0 0.0
2015-Apr-25 06:17N 52°58' E 004°47'0 0.0
2015-Apr-25 05:20N 52°58' E 004°47'0 0.0
2015-Apr-25 04:11N 52°58' E 004°47'0 0.0
2015-Apr-25 03:26N 52°58' E 004°47'0 0.0
2015-Apr-25 02:32N 52°58' E 004°47'0 0.0
2015-Apr-24 23:32N 52°58' E 004°47'0 0.0
2015-Apr-24 21:17N 52°58' E 004°47'0 0.0
2015-Apr-24 19:26N 52°58' E 004°47'0 0.0
2015-Apr-24 17:05N 52°58' E 004°47'1 1.4
2015-Apr-24 16:33N 52°58' E 004°47'8 8.5
2015-Apr-24 15:33N 52°54' E 004°34'1612.0
2015-Apr-24 14:14N 53°09' E 004°42'1012.5
2015-Apr-24 13:27N 53°17' E 004°53'1011.2
2015-Apr-24 12:34N 53°19' E 005°09'3 3.3
2015-Apr-24 11:34N 53°21' E 005°13'4 3.7
2015-Apr-24 10:34N 53°18' E 005°13'9 9.5
2015-Apr-24 09:34N 53°21' E 004°57'10 9.9
2015-Apr-24 08:30N 53°31' E 004°59'9 9.1
2015-Apr-24 07:33N 53°36' E 005°11'1111.3
2015-Apr-24 06:33N 53°41' E 005°28'1312.2
2015-Apr-24 05:30N 53°45' E 005°49'6511.0
2015-Apr-23 23:33N 54°01' E 007°36'10 9.9
2015-Apr-23 22:33N 54°02' E 007°53'1712.0
2015-Apr-23 21:06N 53°60' E 008°22'813.7
2015-Apr-23 20:33N 53°58' E 008°35'1413.7
2015-Apr-23 19:34N 53°51' E 008°55'9 8.8
2015-Apr-23 18:33N 53°54' E 009°09'7 6.9
2015-Apr-23 17:33N 53°59' E 009°17'19 7.9
2015-Apr-23 15:06N 54°14' E 009°37'5 7.6
2015-Apr-23 14:24N 54°18' E 009°43'6 7.6
2015-Apr-23 13:33N 54°22' E 009°52'8 7.6
2015-Apr-23 12:34N 54°22' E 010°05'2 2.0
2015-Apr-23 11:34N 54°22' E 010°08'1 1.4
2015-Apr-23 10:34N 54°23' E 010°10'9 8.6
2015-Apr-23 09:30N 54°31' E 010°15'  
2015-Apr-20 10:09N 54°37' E 010°15'6 9.9
2015-Apr-20 09:34N 54°32' E 010°18'9 8.8
2015-Apr-20 08:33N 54°24' E 010°12'3 2.8
2015-Apr-20 07:31N 54°22' E 010°09'0 0.0
2015-Apr-20 06:31N 54°22' E 010°09'0 0.0
2015-Apr-20 05:31N 54°22' E 010°09'0 0.0
2015-Apr-20 04:31N 54°22' E 010°09'0 0.0
2015-Apr-20 03:31N 54°22' E 010°09'0 0.0
2015-Apr-20 02:31N 54°22' E 010°09'0 0.0
2015-Apr-20 01:28N 54°22' E 010°09'0 0.0
2015-Apr-20 00:28N 54°22' E 010°09'0 0.0
2015-Apr-19 23:25N 54°22' E 010°09'0 0.0
2015-Apr-19 22:22N 54°22' E 010°09'0 0.0
2015-Apr-19 21:22N 54°22' E 010°09'0 0.0
2015-Apr-19 20:28N 54°22' E 010°09'0 0.0
2015-Apr-19 19:28N 54°22' E 010°09'0 0.0
2015-Apr-19 18:28N 54°22' E 010°09'0 0.0
2015-Apr-19 17:31N 54°22' E 010°09'0 0.0
2015-Apr-19 16:31N 54°22' E 010°09'0 0.0
2015-Apr-19 15:28N 54°22' E 010°09'0 0.0
2015-Apr-19 14:28N 54°22' E 010°09'0 0.0
2015-Apr-19 13:31N 54°22' E 010°09'0 0.0
2015-Apr-19 12:31N 54°22' E 010°09'0 0.0
2015-Apr-19 11:31N 54°22' E 010°09'0 0.0
2015-Apr-19 10:31N 54°22' E 010°09'0 0.0
2015-Apr-19 09:31N 54°22' E 010°09'0 0.0
2015-Apr-19 08:31N 54°22' E 010°09'0 0.0
2015-Apr-19 07:31N 54°22' E 010°09'0 0.0
2015-Apr-19 06:31N 54°22' E 010°09'0 0.0
2015-Apr-19 05:31N 54°22' E 010°09'0 0.0
2015-Apr-19 04:31N 54°22' E 010°09'0 0.0
2015-Apr-19 03:31N 54°22' E 010°09'0 0.0
2015-Apr-19 02:31N 54°22' E 010°09'0 0.0
2015-Apr-19 01:25N 54°22' E 010°09'0 0.0
2015-Apr-19 00:25N 54°22' E 010°09'0 0.0
2015-Apr-18 23:31N 54°22' E 010°09'0 0.0
2015-Apr-18 22:31N 54°22' E 010°09'0 0.0
2015-Apr-18 21:31N 54°22' E 010°09'0 0.0
2015-Apr-18 20:31N 54°22' E 010°09'0 0.0
2015-Apr-18 19:31N 54°22' E 010°09'0 0.0
2015-Apr-18 18:31N 54°22' E 010°09'0 0.0
2015-Apr-18 17:31N 54°22' E 010°09'0 0.0
2015-Apr-18 16:31N 54°22' E 010°09'0 0.0
2015-Apr-18 15:31N 54°22' E 010°09'0 0.0
2015-Apr-18 14:31N 54°22' E 010°09'0 0.0
2015-Apr-18 13:31N 54°22' E 010°09'0 0.0
2015-Apr-18 12:19N 54°22' E 010°09'0 0.0
2015-Apr-18 11:31N 54°22' E 010°09'0 0.0
2015-Apr-18 10:31N 54°22' E 010°09'0 0.0
2015-Apr-18 09:31N 54°22' E 010°09'0 0.0
2015-Apr-18 08:31N 54°22' E 010°09'6 6.6
2015-Apr-18 07:33N 54°27' E 010°14'10 9.5
2015-Apr-18 06:33N 54°37' E 010°12'1211.8
2015-Apr-18 05:33N 54°47' E 010°01'5 0.4
2015-Apr-17 19:11N 54°50' E 009°55'  

Dump ship's entire track history